Time;durP1;ratioP1;P1;durP2;ratioP2;P2;SDS_P1;SDS_P2;PMS_P1;PMS_P2;Temp;Humidity;BMP_temperature;BMP_pressure;BME280_temperature;BME280_humidity;BME280_pressure;Samples;Min_cycle;Max_cycle;Signal;HPM_P1;HPM_P2
2023/09/21 00:01:03;;;;;;;9.32;2.70;;;17.10;99.90;;;;;;5019709;28;20104;-55
2023/09/21 00:03:29;;;;;;;3.70;2.20;;;17.00;99.90;;;;;;5024679;28;20022;-57
2023/09/21 00:05:56;;;;;;;5.40;2.28;;;17.00;99.90;;;;;;5016391;28;20030;-53
2023/09/21 00:08:23;;;;;;;4.47;2.28;;;17.00;99.90;;;;;;5017973;28;20395;-54
2023/09/21 00:10:50;;;;;;;7.93;3.13;;;16.90;99.90;;;;;;5027413;28;20026;-58
2023/09/21 00:13:20;;;;;;;4.53;2.17;;;16.90;99.90;;;;;;5016219;28;20021;-59
2023/09/21 00:15:46;;;;;;;8.07;3.03;;;16.90;99.90;;;;;;5025672;28;20034;-57
2023/09/21 00:18:13;;;;;;;4.55;2.63;;;17.00;99.90;;;;;;5019316;28;20026;-56
2023/09/21 00:23:08;;;;;;;6.18;2.58;;;17.00;99.90;;;;;;5021435;28;20176;-57
2023/09/21 00:25:34;;;;;;;5.78;2.15;;;17.10;99.90;;;;;;5013933;28;20029;-56
2023/09/21 00:28:12;;;;;;;5.10;2.45;;;17.10;99.90;;;;;;5013809;28;20030;-54
2023/09/21 00:30:41;;;;;;;6.18;1.98;;;17.10;99.90;;;;;;5017227;28;20030;-56
2023/09/21 00:33:07;;;;;;;4.32;2.53;;;17.20;99.90;;;;;;5012644;28;20082;-54
2023/09/21 00:35:39;;;;;;;7.63;2.53;;;17.20;99.90;;;;;;5013080;28;21610;-53
2023/09/21 00:38:11;;;;;;;4.32;2.05;;;17.30;99.90;;;;;;5014269;28;20116;-54
2023/09/21 00:40:40;;;;;;;5.50;2.40;;;17.30;99.90;;;;;;5024436;28;20033;-56
2023/09/21 00:43:06;;;;;;;5.70;2.70;;;17.40;99.90;;;;;;5024876;28;20038;-56
2023/09/21 00:45:43;;;;;;;3.47;1.90;;;17.40;99.90;;;;;;5015417;28;20026;-55
2023/09/21 00:48:11;;;;;;;3.42;1.90;;;17.40;99.90;;;;;;5014521;28;20034;-55
2023/09/21 00:50:37;;;;;;;5.55;2.08;;;17.40;99.90;;;;;;5011813;28;20030;-50
2023/09/21 00:53:05;;;;;;;4.28;1.95;;;17.40;99.90;;;;;;5014024;28;20038;-56
2023/09/21 00:55:32;;;;;;;8.45;2.35;;;17.30;99.90;;;;;;5011897;28;20022;-56
2023/09/21 00:58:02;;;;;;;2.80;1.85;;;17.30;99.90;;;;;;5024160;28;20041;-54
2023/09/21 01:00:30;;;;;;;5.30;1.77;;;17.30;99.90;;;;;;5015608;28;20034;-56
2023/09/21 01:03:07;;;;;;;5.22;1.90;;;17.30;99.90;;;;;;5016723;28;20021;-57
2023/09/21 01:05:36;;;;;;;5.03;2.10;;;17.30;99.90;;;;;;5018283;28;20026;-57
2023/09/21 01:08:10;;;;;;;2.80;2.22;;;17.30;99.90;;;;;;5015614;28;20014;-55
2023/09/21 01:10:38;;;;;;;4.57;1.85;;;17.30;99.90;;;;;;5023119;28;20033;-53
2023/09/21 01:13:04;;;;;;;6.07;1.70;;;17.20;99.90;;;;;;5021238;28;20037;-58
2023/09/21 01:15:30;;;;;;;5.95;2.30;;;17.20;99.90;;;;;;5012948;28;20369;-55
2023/09/21 01:17:56;;;;;;;4.03;2.00;;;17.20;99.90;;;;;;5016074;28;20030;-57
2023/09/21 01:22:57;;;;;;;6.70;2.28;;;17.20;99.90;;;;;;5011607;28;20018;-56
2023/09/21 01:25:22;;;;;;;4.90;2.47;;;17.20;99.90;;;;;;5020179;28;20017;-54
2023/09/21 01:27:51;;;;;;;7.35;2.42;;;17.20;99.90;;;;;;5015092;28;20029;-56
2023/09/21 01:30:17;;;;;;;5.65;2.17;;;17.10;99.90;;;;;;5011791;28;20443;-55
2023/09/21 01:32:42;;;;;;;4.82;2.47;;;17.10;99.90;;;;;;5021369;28;20045;-57
2023/09/21 01:35:09;;;;;;;3.90;2.00;;;17.10;99.90;;;;;;5013213;28;20494;-56
2023/09/21 01:37:35;;;;;;;4.65;1.95;;;17.00;99.90;;;;;;5012885;28;20041;-58
2023/09/21 01:40:09;;;;;;;2.90;1.98;;;17.00;99.90;;;;;;5021011;28;20033;-56
2023/09/21 01:42:36;;;;;;;;;;;17.00;99.90;;;;;;5024913;28;20117;-56
2023/09/21 01:45:03;;;;;;;6.10;2.50;;;17.00;99.90;;;;;;5013132;28;19936;-60
2023/09/21 01:47:28;;;;;;;4.82;2.40;;;17.00;99.90;;;;;;5012219;28;20022;-54
2023/09/21 01:49:54;;;;;;;5.20;2.05;;;16.90;99.90;;;;;;5012006;28;20026;-56
2023/09/21 01:52:19;;;;;;;5.07;2.05;;;16.90;99.90;;;;;;5015328;28;20032;-55
2023/09/21 01:54:45;;;;;;;7.35;2.53;;;16.90;99.90;;;;;;5020413;28;20041;-57
2023/09/21 01:57:10;;;;;;;6.22;2.88;;;16.80;99.90;;;;;;5020485;28;20040;-59
2023/09/21 01:59:36;;;;;;;2.80;1.98;;;16.80;99.90;;;;;;5021323;28;20041;-57
2023/09/21 02:02:01;;;;;;;5.97;2.38;;;16.80;99.90;;;;;;5016670;28;20079;-59
2023/09/21 02:04:27;;;;;;;5.00;2.22;;;16.80;99.90;;;;;;5022446;28;20110;-57
2023/09/21 02:06:52;;;;;;;4.97;2.33;;;16.70;99.90;;;;;;5012274;28;20029;-57
2023/09/21 02:09:18;;;;;;;3.67;2.00;;;16.70;99.90;;;;;;5021338;28;20030;-57
2023/09/21 02:11:44;;;;;;;7.43;2.70;;;16.70;99.90;;;;;;5025350;28;20037;-56
2023/09/21 02:14:11;;;;;;;4.78;2.45;;;16.70;99.90;;;;;;5027501;28;20026;-57
2023/09/21 02:16:38;;;;;;;6.38;2.45;;;16.60;99.90;;;;;;5022916;28;20555;-55
2023/09/21 02:19:03;;;;;;;7.40;2.50;;;16.60;99.90;;;;;;5018467;28;20034;-59
2023/09/21 02:21:29;;;;;;;3.83;2.33;;;16.50;99.90;;;;;;5017514;28;20087;-54
2023/09/21 02:23:55;;;;;;;9.35;2.55;;;16.50;99.90;;;;;;5014637;28;20030;-56
2023/09/21 02:26:21;;;;;;;5.50;2.25;;;16.40;99.90;;;;;;5016442;28;20391;-57
2023/09/21 02:28:48;;;;;;;5.32;2.60;;;16.50;99.90;;;;;;5018339;28;20037;-51
2023/09/21 02:31:14;;;;;;;4.35;2.17;;;16.40;99.90;;;;;;5018440;28;20458;-55
2023/09/21 02:33:42;;;;;;;3.40;2.20;;;16.40;99.90;;;;;;5019507;28;20030;-57
2023/09/21 02:36:19;;;;;;;5.13;2.40;;;16.40;99.90;;;;;;5018847;28;20025;-55
2023/09/21 02:38:45;;;;;;;15.10;2.85;;;16.40;99.90;;;;;;5013676;28;20033;-58
2023/09/21 02:41:11;;;;;;;6.70;2.30;;;16.30;99.90;;;;;;5012438;28;20034;-56
2023/09/21 02:43:39;;;;;;;4.95;2.50;;;16.30;99.90;;;;;;5023267;28;20128;-55
2023/09/21 02:46:06;;;;;;;4.82;2.45;;;16.20;99.90;;;;;;5013040;28;20036;-57
2023/09/21 02:48:31;;;;;;;5.03;2.60;;;16.20;99.90;;;;;;5022880;28;20025;-56
2023/09/21 02:50:58;;;;;;;5.03;2.60;;;16.20;99.90;;;;;;5013969;28;20395;-57
2023/09/21 02:53:24;;;;;;;6.00;2.53;;;16.10;99.90;;;;;;5012127;28;20550;-57
2023/09/21 02:55:51;;;;;;;5.75;2.63;;;16.10;99.90;;;;;;5014284;28;20025;-57
2023/09/21 02:58:19;;;;;;;5.63;2.20;;;16.10;99.90;;;;;;5013156;28;20029;-57
2023/09/21 03:00:45;;;;;;;5.55;2.40;;;16.10;99.90;;;;;;5011686;28;20475;-53
2023/09/21 03:03:17;;;;;;;5.07;2.35;;;16.10;99.90;;;;;;5013337;28;20025;-55
2023/09/21 03:05:46;;;;;;;5.25;2.50;;;16.10;99.90;;;;;;5014419;28;20042;-57
2023/09/21 03:08:14;;;;;;;5.03;2.47;;;16.10;99.90;;;;;;5020446;28;20077;-56
2023/09/21 03:10:44;;;;;;;6.93;2.83;;;16.10;99.90;;;;;;5019021;28;20028;-58
2023/09/21 03:13:17;;;;;;;6.13;2.25;;;16.10;99.90;;;;;;5016631;28;20506;-57
2023/09/21 03:15:50;;;;;;;6.63;2.65;;;16.10;99.90;;;;;;5011649;28;20397;-57
2023/09/21 03:18:18;;;;;;;3.03;1.98;;;16.00;99.90;;;;;;5017317;28;20025;-55
2023/09/21 03:20:45;;;;;;;4.68;2.33;;;16.00;99.90;;;;;;5023523;28;20021;-51
2023/09/21 03:23:12;;;;;;;7.18;2.17;;;16.00;99.90;;;;;;5011541;28;20388;-57
2023/09/21 03:25:49;;;;;;;5.20;2.42;;;15.90;99.90;;;;;;5018896;28;20072;-58
2023/09/21 03:28:17;;;;;;;10.40;2.65;;;15.90;99.90;;;;;;5017487;28;20064;-52
2023/09/21 03:30:54;;;;;;;7.68;2.53;;;15.90;99.90;;;;;;5023606;28;20033;-57
2023/09/21 03:33:21;;;;;;;4.13;2.15;;;15.90;99.90;;;;;;5020903;28;20588;-56
2023/09/21 03:35:46;;;;;;;6.25;2.33;;;15.80;99.90;;;;;;5014082;28;20037;-55
2023/09/21 03:38:12;;;;;;;5.93;2.35;;;15.80;99.90;;;;;;5015878;28;20053;-51
2023/09/21 03:40:42;;;;;;;6.32;3.00;;;15.70;99.90;;;;;;5024800;28;20407;-56
2023/09/21 03:43:15;;;;;;;9.32;2.83;;;15.70;99.90;;;;;;5018952;28;20025;-56
2023/09/21 03:45:42;;;;;;;13.90;2.38;;;15.70;99.90;;;;;;5024007;28;20159;-57
2023/09/21 03:48:11;;;;;;;3.35;2.20;;;15.70;99.90;;;;;;5014297;28;20034;-54
2023/09/21 03:50:37;;;;;;;3.33;2.03;;;15.70;99.90;;;;;;5013517;28;20026;-55
2023/09/21 03:53:04;;;;;;;6.25;2.83;;;15.60;99.90;;;;;;5022198;28;20433;-54
2023/09/21 03:55:31;;;;;;;5.18;2.50;;;15.60;99.90;;;;;;5023453;28;20063;-54
2023/09/21 03:57:57;;;;;;;4.90;2.75;;;15.60;99.90;;;;;;5023437;28;20128;-53
2023/09/21 04:02:49;;;;;;;6.45;2.60;;;15.50;99.90;;;;;;5025877;28;20028;-55
2023/09/21 04:05:18;;;;;;;4.05;2.38;;;15.40;99.90;;;;;;5022663;28;20025;-55
2023/09/21 04:07:45;;;;;;;8.30;3.08;;;15.40;99.90;;;;;;5024493;28;20026;-55
2023/09/21 04:10:11;;;;;;;8.95;2.95;;;15.40;99.90;;;;;;5015883;28;20140;-55
2023/09/21 04:12:39;;;;;;;6.90;2.42;;;15.40;99.90;;;;;;5027242;28;20026;-54
2023/09/21 04:15:06;;;;;;;9.20;2.88;;;15.40;99.90;;;;;;5021865;28;20029;-53
2023/09/21 04:17:32;;;;;;;9.57;2.72;;;15.40;99.90;;;;;;5017930;28;20076;-51
2023/09/21 04:19:57;;;;;;;4.63;2.42;;;15.40;99.90;;;;;;5019411;28;20061;-57
2023/09/21 04:22:23;;;;;;;4.25;2.50;;;15.50;99.90;;;;;;5018411;28;20069;-56
2023/09/21 04:24:48;;;;;;;3.80;2.20;;;15.50;99.90;;;;;;5021177;28;20017;-52
2023/09/21 04:27:14;;;;;;;6.13;2.40;;;15.50;99.90;;;;;;5016780;28;20034;-55
2023/09/21 04:29:39;;;;;;;6.60;3.10;;;15.50;99.90;;;;;;5026836;28;20025;-54
2023/09/21 04:32:05;;;;;;;5.38;2.75;;;15.50;99.90;;;;;;5020028;28;20033;-57
2023/09/21 04:34:33;;;;;;;5.43;2.55;;;15.50;99.90;;;;;;5017966;28;20034;-55
2023/09/21 04:36:59;;;;;;;7.15;2.60;;;15.50;99.90;;;;;;5013567;28;20022;-55
2023/09/21 04:39:24;;;;;;;3.88;2.20;;;15.50;99.90;;;;;;5020080;28;20044;-56
2023/09/21 04:41:50;;;;;;;8.70;2.78;;;15.50;99.90;;;;;;5016711;28;20026;-57
2023/09/21 04:44:16;;;;;;;6.60;2.53;;;15.50;99.90;;;;;;5017128;28;20387;-58
2023/09/21 04:46:42;;;;;;;4.53;2.42;;;15.50;99.90;;;;;;5022248;28;20491;-56
2023/09/21 04:49:08;;;;;;;4.80;2.60;;;15.50;99.90;;;;;;5018438;28;20032;-57
2023/09/21 04:51:34;;;;;;;6.55;3.03;;;15.60;99.90;;;;;;5017505;28;20033;-57
2023/09/21 04:53:59;;;;;;;4.57;2.42;;;15.60;99.90;;;;;;5013468;28;20030;-52
2023/09/21 04:56:26;;;;;;;5.20;2.63;;;15.50;99.90;;;;;;5016576;28;20101;-53
2023/09/21 04:58:55;;;;;;;3.35;2.47;;;15.60;99.90;;;;;;5024417;28;20032;-52
2023/09/21 05:01:24;;;;;;;4.05;2.33;;;15.60;99.90;;;;;;5016839;28;20502;-55
2023/09/21 05:03:49;;;;;;;3.38;2.30;;;15.60;99.90;;;;;;5018129;28;20034;-55
2023/09/21 05:06:18;;;;;;;6.97;2.42;;;15.60;99.90;;;;;;5017660;28;20036;-58
2023/09/21 05:08:44;;;;;;;3.17;2.30;;;15.60;99.90;;;;;;5012714;28;20555;-56
2023/09/21 05:11:09;;;;;;;5.03;2.58;;;15.60;99.90;;;;;;5013184;28;20036;-55
2023/09/21 05:13:36;;;;;;;5.45;2.40;;;15.60;99.90;;;;;;5012852;28;20044;-56
2023/09/21 05:16:03;;;;;;;4.85;2.22;;;15.60;99.90;;;;;;5007809;28;20140;-57
2023/09/21 05:18:30;;;;;;;8.13;2.60;;;15.60;99.90;;;;;;5010719;28;20111;-57
2023/09/21 05:20:56;;;;;;;6.95;2.58;;;15.60;99.90;;;;;;5015229;28;20025;-56
2023/09/21 05:23:21;;;;;;;4.57;2.78;;;15.70;99.90;;;;;;5018937;28;20079;-54
2023/09/21 05:25:47;;;;;;;9.10;2.58;;;15.60;99.90;;;;;;5012401;28;20733;-54
2023/09/21 05:28:12;;;;;;;7.15;2.25;;;15.70;99.90;;;;;;5015530;28;20399;-56
2023/09/21 05:30:38;;;;;;;5.47;2.47;;;15.70;99.90;;;;;;5017920;28;20125;-55
2023/09/21 05:33:05;;;;;;;4.63;2.13;;;15.70;99.90;;;;;;5011755;28;20531;-57
2023/09/21 05:35:31;;;;;;;8.35;2.60;;;15.70;99.90;;;;;;5017599;28;20026;-57
2023/09/21 05:37:57;;;;;;;9.95;2.60;;;15.80;99.90;;;;;;5020863;28;20094;-57
2023/09/21 05:40:22;;;;;;;11.27;2.67;;;15.80;99.90;;;;;;5030610;28;20029;-58
2023/09/21 05:42:48;;;;;;;7.63;2.55;;;15.90;99.90;;;;;;5022746;28;20040;-55
2023/09/21 05:45:13;;;;;;;5.45;2.47;;;15.90;99.90;;;;;;5022022;28;20185;-54
2023/09/21 05:47:39;;;;;;;7.95;2.33;;;16.00;99.90;;;;;;5016883;28;20026;-58
2023/09/21 05:50:05;;;;;;;5.53;2.58;;;16.00;99.90;;;;;;5019674;28;20048;-57
2023/09/21 05:52:33;;;;;;;5.93;2.78;;;16.10;99.90;;;;;;5015126;28;20677;-53
2023/09/21 05:54:59;;;;;;;4.53;2.88;;;16.20;99.90;;;;;;5020211;28;20037;-57
2023/09/21 05:57:25;;;;;;;3.63;2.42;;;16.30;99.90;;;;;;5022162;28;20029;-55
2023/09/21 05:59:51;;;;;;;5.85;2.83;;;16.30;99.90;;;;;;5017264;28;20040;-59
2023/09/21 06:02:16;;;;;;;11.45;2.80;;;16.40;99.90;;;;;;5019097;28;20034;-57
2023/09/21 06:04:42;;;;;;;11.23;2.45;;;16.50;99.90;;;;;;5021308;28;20028;-56
2023/09/21 06:07:08;;;;;;;6.57;2.38;;;16.60;99.90;;;;;;5017436;28;20076;-57
2023/09/21 06:09:33;;;;;;;10.80;2.92;;;16.70;99.90;;;;;;5020093;28;20235;-58
2023/09/21 06:11:59;;;;;;;6.72;2.38;;;16.80;99.90;;;;;;5020695;28;20390;-57
2023/09/21 06:14:25;;;;;;;5.13;2.15;;;16.80;99.90;;;;;;5018075;28;20032;-55
2023/09/21 06:16:51;;;;;;;5.00;2.60;;;16.90;99.90;;;;;;5015110;28;20026;-55
2023/09/21 06:19:18;;;;;;;4.55;2.00;;;17.00;99.90;;;;;;5017723;28;20112;-56
2023/09/21 06:21:47;;;;;;;7.72;2.53;;;17.10;99.90;;;;;;5010521;28;20076;-53
2023/09/21 06:24:13;;;;;;;3.85;2.50;;;17.20;99.90;;;;;;5021761;28;20022;-51
2023/09/21 06:26:39;;;;;;;6.13;2.05;;;17.30;99.90;;;;;;5014922;28;20053;-54
2023/09/21 06:29:05;;;;;;;6.72;2.28;;;17.40;99.90;;;;;;5021238;28;20116;-51
2023/09/21 06:31:31;;;;;;;8.68;2.50;;;17.50;99.90;;;;;;5011316;28;20022;-55
2023/09/21 06:33:59;;;;;;;7.07;3.30;;;17.60;99.90;;;;;;5018402;28;20475;-55
2023/09/21 06:36:28;;;;;;;21.17;4.63;;;17.70;99.90;;;;;;5015928;28;20033;-57
2023/09/21 06:38:57;;;;;;;9.05;3.50;;;17.70;99.90;;;;;;5025520;28;20037;-57
2023/09/21 06:41:24;;;;;;;9.07;3.97;;;17.80;99.90;;;;;;5028044;28;20029;-56
2023/09/21 06:43:51;;;;;;;14.75;3.13;;;17.90;99.90;;;;;;5021468;28;20022;-56
2023/09/21 06:46:17;;;;;;;9.10;3.25;;;18.10;99.90;;;;;;5023484;28;20029;-58
2023/09/21 06:48:42;;;;;;;15.30;3.33;;;18.20;99.90;;;;;;5020107;28;20040;-58
2023/09/21 06:51:08;;;;;;;4.57;2.60;;;18.30;99.90;;;;;;5016457;28;20022;-58
2023/09/21 06:53:37;;;;;;;11.75;3.28;;;18.40;99.90;;;;;;5026372;28;20045;-56
2023/09/21 06:56:03;;;;;;;32.33;4.63;;;18.50;99.90;;;;;;5029472;28;20021;-57
2023/09/21 06:58:32;;;;;;;8.82;3.03;;;18.50;99.90;;;;;;5020893;28;20022;-53
2023/09/21 07:00:58;;;;;;;10.93;3.08;;;18.60;99.90;;;;;;5027705;28;20036;-56
2023/09/21 07:03:24;;;;;;;18.75;3.13;;;18.70;99.90;;;;;;5027882;28;20018;-56
2023/09/21 07:05:50;;;;;;;7.18;3.33;;;18.80;99.90;;;;;;5021282;28;20037;-57
2023/09/21 07:08:16;;;;;;;6.00;2.38;;;18.90;99.90;;;;;;5020021;28;20031;-57
2023/09/21 07:10:46;;;;;;;28.70;4.05;;;19.00;99.90;;;;;;5016704;28;20037;-60
2023/09/21 07:13:12;;;;;;;8.98;2.60;;;19.20;99.90;;;;;;5029751;28;20037;-58
2023/09/21 07:15:38;;;;;;;4.68;2.28;;;19.30;99.90;;;;;;5020491;28;20026;-54
2023/09/21 07:18:05;;;;;;;20.83;3.15;;;19.50;99.90;;;;;;5021388;28;20053;-56
2023/09/21 07:20:31;;;;;;;5.60;2.90;;;19.60;99.90;;;;;;5018107;28;20057;-55
2023/09/21 07:22:57;;;;;;;14.35;2.70;;;19.80;99.90;;;;;;5021041;28;20057;-56
2023/09/21 07:25:23;;;;;;;11.75;2.42;;;20.00;99.90;;;;;;5020348;28;20159;-53
2023/09/21 07:27:52;;;;;;;27.33;3.42;;;20.10;99.90;;;;;;5020531;28;20026;-54
2023/09/21 07:30:18;;;;;;;17.08;2.85;;;20.10;99.90;;;;;;5026297;28;20025;-52
2023/09/21 07:32:44;;;;;;;9.52;2.13;;;20.10;99.90;;;;;;5024542;28;20037;-56
2023/09/21 07:35:10;;;;;;;24.13;3.20;;;20.00;99.90;;;;;;5024473;28;20033;-57
2023/09/21 07:37:36;;;;;;;43.30;4.47;;;20.10;99.90;;;;;;5021149;28;20095;-54
2023/09/21 07:40:06;;;;;;;32.55;3.95;;;20.20;99.90;;;;;;5027506;28;20096;-57
2023/09/21 07:42:35;;;;;;;20.52;3.75;;;20.30;99.90;;;;;;5020679;28;20446;-56
2023/09/21 07:45:01;;;;;;;42.90;5.55;;;20.40;99.90;;;;;;5023211;28;20053;-56
2023/09/21 07:47:26;;;;;;;9.27;2.40;;;20.50;99.90;;;;;;5022148;28;20421;-57
2023/09/21 07:49:55;;;;;;;15.23;2.65;;;20.50;99.90;;;;;;5022738;28;20029;-58
2023/09/21 07:52:23;;;;;;;13.07;2.50;;;20.60;99.90;;;;;;5024770;28;20450;-53
2023/09/21 07:54:49;;;;;;;286.55;18.95;;;20.70;99.90;;;;;;5021064;28;20028;-57
2023/09/21 07:57:16;;;;;;;65.65;7.05;;;20.60;99.90;;;;;;5019151;28;20022;-57
2023/09/21 07:59:42;;;;;;;28.95;4.20;;;20.70;99.90;;;;;;5023212;28;20032;-57
2023/09/21 08:02:09;;;;;;;18.63;4.07;;;20.70;99.90;;;;;;5018540;28;20022;-57
2023/09/21 08:04:35;;;;;;;10.57;2.45;;;20.70;99.90;;;;;;5017163;28;20037;-55
2023/09/21 08:07:00;;;;;;;24.92;3.65;;;20.80;99.90;;;;;;5016740;28;20040;-55
2023/09/21 08:09:26;;;;;;;10.40;2.63;;;20.80;99.90;;;;;;5019703;28;20022;-57
2023/09/21 08:11:52;;;;;;;64.68;5.50;;;20.90;99.90;;;;;;5016675;28;20061;-55
2023/09/21 08:14:18;;;;;;;11.15;2.47;;;20.90;99.90;;;;;;5022483;28;20508;-57
2023/09/21 08:16:44;;;;;;;28.65;3.08;;;20.90;99.90;;;;;;5022016;28;20096;-58
2023/09/21 08:19:09;;;;;;;7.93;1.85;;;20.90;99.90;;;;;;5021760;28;20525;-58
2023/09/21 08:21:36;;;;;;;9.85;2.47;;;20.80;99.90;;;;;;5016312;28;20057;-56
2023/09/21 08:24:01;;;;;;;8.70;2.10;;;20.80;99.90;;;;;;5020178;28;20029;-57
2023/09/21 08:26:27;;;;;;;6.28;2.60;;;20.70;99.90;;;;;;5017787;28;20048;-55
2023/09/21 08:28:53;;;;;;;6.38;2.70;;;20.70;99.90;;;;;;5021840;28;20630;-57
2023/09/21 08:31:19;;;;;;;5.32;2.28;;;20.70;99.90;;;;;;5019113;28;20041;-57
2023/09/21 08:33:46;;;;;;;3.40;2.13;;;20.70;99.90;;;;;;5023512;28;20148;-56
2023/09/21 08:36:15;;;;;;;3.75;2.10;;;20.70;99.90;;;;;;5021858;28;20026;-54
2023/09/21 08:38:41;;;;;;;6.35;2.03;;;20.80;99.90;;;;;;5012551;28;20447;-55
2023/09/21 08:41:08;;;;;;;5.75;2.20;;;20.80;99.90;;;;;;5014575;28;20026;-55
2023/09/21 08:43:34;;;;;;;3.90;1.95;;;20.70;99.90;;;;;;5026547;28;20021;-54
2023/09/21 08:46:00;;;;;;;8.90;2.33;;;20.80;99.90;;;;;;5017110;28;20113;-56
2023/09/21 08:48:29;;;;;;;4.28;1.92;;;20.80;99.90;;;;;;5017496;28;20072;-58
2023/09/21 08:50:55;;;;;;;7.68;2.60;;;20.90;99.90;;;;;;5019239;28;20018;-58
2023/09/21 08:53:22;;;;;;;9.93;2.35;;;21.00;99.90;;;;;;5024542;28;20034;-57
2023/09/21 08:55:49;;;;;;;3.28;1.83;;;21.10;99.90;;;;;;5017421;28;20075;-59
2023/09/21 08:58:25;;;;;;;5.07;2.05;;;21.30;99.90;;;;;;5023208;28;20032;-54
2023/09/21 09:00:56;;;;;;;4.82;1.98;;;21.50;99.90;;;;;;5020193;28;20033;-59
2023/09/21 09:03:25;;;;;;;6.55;2.45;;;21.60;99.90;;;;;;5020754;28;20054;-59
2023/09/21 09:05:55;;;;;;;7.78;2.38;;;21.70;99.90;;;;;;5024003;28;20030;-59
2023/09/21 09:08:21;;;;;;;11.70;2.85;;;21.70;99.90;;;;;;5017646;28;20022;-58
2023/09/21 09:10:46;;;;;;;4.07;2.28;;;21.70;99.90;;;;;;5016138;28;20022;-57
2023/09/21 09:13:12;;;;;;;5.63;2.53;;;21.70;99.90;;;;;;5013327;28;20410;-56
2023/09/21 09:15:38;;;;;;;5.07;2.13;;;21.70;99.90;;;;;;5021816;28;20038;-58
2023/09/21 09:18:05;;;;;;;5.72;2.55;;;21.60;99.90;;;;;;5022031;28;20087;-58
2023/09/21 09:20:32;;;;;;;4.55;2.60;;;21.60;99.90;;;;;;5024031;28;20048;-59
2023/09/21 09:23:01;;;;;;;7.38;2.58;;;21.60;99.90;;;;;;5018171;28;20088;-54
2023/09/21 09:25:26;;;;;;;5.60;2.40;;;21.70;99.90;;;;;;5016849;28;20026;-59
2023/09/21 09:27:52;;;;;;;4.97;2.25;;;21.70;99.90;;;;;;5015624;28;20026;-55
2023/09/21 09:30:20;;;;;;;8.32;2.40;;;21.70;99.90;;;;;;5021323;28;20054;-57
2023/09/21 09:32:47;;;;;;;3.25;2.35;;;21.70;99.90;;;;;;5020234;28;20025;-56
2023/09/21 09:35:15;;;;;;;8.43;2.75;;;21.70;99.90;;;;;;5020362;28;20025;-55
2023/09/21 09:37:44;;;;;;;7.50;2.60;;;21.80;99.90;;;;;;5024253;28;20124;-56
2023/09/21 09:40:14;;;;;;;6.88;2.10;;;21.80;99.90;;;;;;5020432;28;20030;-53
2023/09/21 09:42:40;;;;;;;7.32;2.80;;;21.90;99.90;;;;;;5023616;28;20083;-53
2023/09/21 09:45:16;;;;;;;5.72;2.55;;;21.80;99.90;;;;;;5019009;28;20025;-57
2023/09/21 09:47:47;;;;;;;6.38;2.30;;;21.90;99.90;;;;;;5023178;28;20029;-59
2023/09/21 09:50:17;;;;;;;8.00;2.30;;;21.90;99.90;;;;;;5020215;28;20065;-55
2023/09/21 09:52:51;;;;;;;7.65;2.42;;;21.90;99.90;;;;;;5020741;28;20026;-56
2023/09/21 09:55:22;;;;;;;6.15;2.35;;;21.90;99.90;;;;;;5018769;28;20025;-56
2023/09/21 09:57:53;;;;;;;6.90;2.08;;;21.90;99.90;;;;;;5021303;28;20029;-60
2023/09/21 10:00:20;;;;;;;9.18;2.13;;;22.00;99.90;;;;;;5020707;28;20400;-58
2023/09/21 10:02:47;;;;;;;6.53;2.40;;;21.90;99.90;;;;;;5022614;28;20164;-59
2023/09/21 10:05:14;;;;;;;3.95;2.10;;;22.00;99.90;;;;;;5020599;28;20034;-59
2023/09/21 10:07:39;;;;;;;5.60;2.35;;;22.00;99.90;;;;;;5021728;28;20026;-56
2023/09/21 10:10:08;;;;;;;3.65;2.08;;;22.00;99.90;;;;;;5023147;28;20029;-60
2023/09/21 10:12:34;;;;;;;5.53;2.80;;;22.10;99.90;;;;;;5024967;28;20022;-58
2023/09/21 10:15:02;;;;;;;4.40;2.15;;;22.20;99.90;;;;;;5022880;28;20068;-57
2023/09/21 10:17:28;;;;;;;4.55;2.65;;;22.10;99.90;;;;;;5026789;28;20033;-55
2023/09/21 10:20:14;;;;;;;4.50;2.10;;;22.20;99.90;;;;;;5024405;28;20527;-55
2023/09/21 10:22:44;;;;;;;8.40;2.05;;;22.20;99.90;;;;;;5022582;28;20443;-56
2023/09/21 10:25:15;;;;;;;4.05;2.25;;;22.20;99.90;;;;;;5023889;28;20136;-57
2023/09/21 10:27:46;;;;;;;7.63;2.50;;;22.10;99.90;;;;;;5025612;28;20057;-57
2023/09/21 10:30:15;;;;;;;7.43;2.28;;;22.20;99.90;;;;;;5024407;28;20041;-54
2023/09/21 10:32:50;;;;;;;6.18;2.20;;;22.20;99.90;;;;;;5020514;28;20518;-53
2023/09/21 10:35:21;;;;;;;3.08;1.90;;;22.30;99.90;;;;;;5030495;28;20086;-59
2023/09/21 10:37:51;;;;;;;6.57;2.03;;;22.20;99.90;;;;;;5028695;28;20061;-57
2023/09/21 10:40:26;;;;;;;7.45;2.38;;;22.20;99.90;;;;;;5024413;28;20070;-59
2023/09/21 10:42:52;;;;;;;8.25;2.50;;;22.20;99.90;;;;;;5022688;28;20040;-56
2023/09/21 10:45:18;;;;;;;4.95;2.17;;;22.30;99.90;;;;;;5026537;28;20017;-56
2023/09/21 10:47:48;;;;;;;7.40;2.08;;;22.30;99.90;;;;;;5024266;28;20399;-57
2023/09/21 10:50:21;;;;;;;4.25;1.75;;;22.40;99.90;;;;;;5026870;28;20033;-58
2023/09/21 10:52:51;;;;;;;4.60;2.03;;;22.30;99.90;;;;;;5022672;28;20159;-57
2023/09/21 10:55:17;;;;;;;6.05;2.17;;;22.40;99.90;;;;;;5024950;28;20034;-57
2023/09/21 10:57:44;;;;;;;4.10;1.92;;;22.50;99.90;;;;;;5026138;28;20025;-56
2023/09/21 11:00:20;;;;;;;6.45;2.10;;;22.60;99.90;;;;;;5028516;28;20021;-56
2023/09/21 11:02:47;;;;;;;7.78;2.30;;;22.60;99.90;;;;;;5022258;28;20041;-56
2023/09/21 11:05:16;;;;;;;5.03;2.47;;;22.80;99.90;;;;;;5019402;28;20031;-57
2023/09/21 11:07:43;;;;;;;3.08;2.00;;;22.70;99.90;;;;;;5020461;28;20022;-57
2023/09/21 11:10:11;;;;;;;4.43;2.17;;;22.70;99.90;;;;;;5023506;28;20677;-58
2023/09/21 11:12:40;;;;;;;6.18;2.28;;;22.70;99.90;;;;;;5021400;28;20051;-58
2023/09/21 11:15:12;;;;;;;6.50;2.70;;;22.70;99.90;;;;;;5023348;28;20407;-54
2023/09/21 11:17:40;;;;;;;3.78;1.73;;;22.70;99.90;;;;;;5023901;28;20025;-58
2023/09/21 11:20:08;;;;;;;7.18;2.65;;;22.60;99.90;;;;;;5027900;28;20369;-57
2023/09/21 11:22:34;;;;;;;4.35;2.00;;;22.70;99.90;;;;;;5020824;28;20083;-58
2023/09/21 11:24:59;;;;;;;5.25;2.10;;;22.70;99.90;;;;;;5017827;28;20018;-56
2023/09/21 11:27:26;;;;;;;6.25;2.45;;;22.70;99.90;;;;;;5014789;28;20036;-60
2023/09/21 11:29:53;;;;;;;5.93;1.95;;;22.80;99.90;;;;;;5020156;28;20017;-58
2023/09/21 11:32:21;;;;;;;3.58;2.20;;;22.90;99.90;;;;;;5019441;28;20030;-58
2023/09/21 11:34:47;;;;;;;5.18;2.13;;;22.80;99.90;;;;;;5022675;28;20049;-59
2023/09/21 11:37:14;;;;;;;4.40;1.98;;;22.70;99.90;;;;;;5019487;28;20033;-57
2023/09/21 11:39:46;;;;;;;4.68;2.03;;;22.60;99.90;;;;;;5032917;28;20566;-58
2023/09/21 11:42:12;;;;;;;4.00;1.67;;;22.60;99.90;;;;;;5022862;28;20046;-58
2023/09/21 11:44:38;;;;;;;6.72;2.10;;;22.60;99.90;;;;;;5021841;28;20028;-59
2023/09/21 11:47:10;;;;;;;7.38;2.05;;;22.60;99.90;;;;;;5020425;28;20112;-58
2023/09/21 11:49:43;;;;;;;2.13;1.73;;;22.50;99.90;;;;;;5019341;28;20029;-57
2023/09/21 11:52:11;;;;;;;7.70;2.17;;;22.60;99.90;;;;;;5022307;28;20461;-59
2023/09/21 11:54:41;;;;;;;7.57;2.10;;;22.60;99.90;;;;;;5018426;28;20117;-57
2023/09/21 11:57:09;;;;;;;6.05;2.10;;;22.70;99.90;;;;;;5017397;28;20025;-55
2023/09/21 11:59:47;;;;;;;5.00;2.20;;;22.60;99.90;;;;;;5017432;28;20124;-59
2023/09/21 12:02:14;;;;;;;9.40;2.65;;;22.50;99.90;;;;;;5019461;28;20033;-59
2023/09/21 12:04:43;;;;;;;10.13;2.38;;;22.60;99.90;;;;;;5020448;28;20449;-58
2023/09/21 12:07:09;;;;;;;6.00;2.58;;;22.60;99.90;;;;;;5021125;28;20450;-57
2023/09/21 12:09:41;;;;;;;6.10;2.00;;;22.70;99.90;;;;;;5019021;28;20133;-58
2023/09/21 12:12:12;;;;;;;6.78;2.08;;;22.80;99.90;;;;;;5020694;28;20376;-58
2023/09/21 12:14:40;;;;;;;3.75;2.20;;;22.70;99.90;;;;;;5018764;28;20037;-57
2023/09/21 12:17:11;;;;;;;6.10;2.67;;;22.70;99.90;;;;;;5018366;28;20065;-58
2023/09/21 12:19:37;;;;;;;5.78;2.15;;;22.70;99.90;;;;;;5015773;28;20021;-58
2023/09/21 12:22:05;;;;;;;7.50;2.15;;;22.70;99.90;;;;;;5021666;28;20055;-58
2023/09/21 12:24:34;;;;;;;4.50;2.00;;;22.60;99.90;;;;;;5020419;28;20031;-56
2023/09/21 12:27:06;;;;;;;6.55;2.53;;;22.50;99.90;;;;;;5018716;28;20432;-57
2023/09/21 12:29:33;;;;;;;7.18;2.70;;;22.50;99.90;;;;;;5019180;28;20539;-57
2023/09/21 12:31:59;;;;;;;5.20;2.30;;;22.40;99.90;;;;;;5022016;28;20494;-59
2023/09/21 12:34:25;;;;;;;6.35;3.15;;;22.40;99.90;;;;;;5018082;28;20622;-57
2023/09/21 12:36:51;;;;;;;8.05;2.60;;;22.50;99.90;;;;;;5019901;28;20394;-53
2023/09/21 12:39:18;;;;;;;6.53;2.15;;;22.50;99.90;;;;;;5030202;28;20025;-59
2023/09/21 12:41:44;;;;;;;10.35;3.22;;;22.50;99.90;;;;;;5024905;28;20030;-58
2023/09/21 12:44:10;;;;;;;4.95;2.60;;;22.40;99.90;;;;;;5015534;28;20053;-57
2023/09/21 12:46:39;;;;;;;5.82;2.45;;;22.50;99.90;;;;;;5019915;28;20419;-56
2023/09/21 12:49:04;;;;;;;5.97;2.78;;;22.50;99.90;;;;;;5023697;28;21643;-59
2023/09/21 12:51:32;;;;;;;6.15;2.60;;;22.40;99.90;;;;;;5014957;28;20041;-54
2023/09/21 12:53:58;;;;;;;5.38;2.38;;;22.30;99.90;;;;;;5017177;28;20049;-58